createdAt,value
2019-02-28T00:00:40.649Z,10.70
2019-02-28T00:03:09.481Z,10.70
2019-02-28T00:05:39.030Z,10.60
2019-02-28T00:08:07.584Z,10.60
2019-02-28T00:10:36.124Z,10.50
2019-02-28T00:13:04.696Z,10.50
2019-02-28T00:15:33.319Z,10.50
2019-02-28T00:18:03.589Z,10.40
2019-02-28T00:20:32.659Z,10.40
2019-02-28T00:23:01.228Z,10.40
2019-02-28T00:25:29.694Z,10.30
2019-02-28T00:27:58.195Z,10.30
2019-02-28T00:30:26.717Z,10.30
2019-02-28T00:32:56.430Z,10.30
2019-02-28T00:35:25.434Z,10.30
2019-02-28T00:37:56.670Z,10.20
2019-02-28T00:40:24.208Z,10.20
2019-02-28T00:42:52.662Z,10.20
2019-02-28T00:45:21.148Z,10.20
2019-02-28T00:47:49.608Z,10.10
2019-02-28T00:50:18.178Z,10.10
2019-02-28T00:52:46.715Z,10.10
2019-02-28T00:55:15.540Z,10.00
2019-02-28T00:57:44.118Z,10.00
2019-02-28T01:00:15.924Z,10.00
2019-02-28T01:02:44.480Z,9.90
2019-02-28T01:05:13.033Z,9.90
2019-02-28T01:07:41.483Z,9.90
2019-02-28T01:10:13.925Z,9.90
2019-02-28T01:12:42.397Z,9.90
2019-02-28T01:15:17.527Z,9.80
2019-02-28T01:17:46.234Z,9.80
2019-02-28T01:20:16.328Z,9.80
2019-02-28T01:22:45.150Z,9.80
2019-02-28T01:25:18.030Z,9.70
2019-02-28T01:27:46.485Z,9.70
2019-02-28T01:30:15.796Z,9.70
2019-02-28T01:32:44.321Z,9.60
2019-02-28T01:35:12.943Z,9.60
2019-02-28T01:37:44.025Z,9.60
2019-02-28T01:40:14.169Z,9.60
2019-02-28T01:42:42.863Z,9.60
2019-02-28T01:45:12.771Z,9.60
2019-02-28T01:47:41.383Z,9.60
2019-02-28T01:50:11.473Z,9.60
2019-02-28T01:52:44.391Z,9.60
2019-02-28T01:55:11.215Z,9.60
2019-02-28T01:57:43.874Z,9.50
2019-02-28T02:00:12.769Z,9.50
2019-02-28T02:02:41.313Z,9.50
2019-02-28T02:05:09.968Z,9.50
2019-02-28T02:07:38.453Z,9.50
2019-02-28T02:10:21.280Z,9.50
2019-02-28T02:12:48.118Z,9.50
2019-02-28T02:15:17.124Z,9.50
2019-02-28T02:17:46.415Z,9.50
2019-02-28T02:20:15.712Z,9.40
2019-02-28T02:22:45.257Z,9.40
2019-02-28T02:25:14.117Z,9.40
2019-02-28T02:27:42.616Z,9.40
2019-02-28T02:30:22.570Z,9.30
2019-02-28T02:32:51.121Z,9.30
2019-02-28T02:35:19.608Z,9.30
2019-02-28T02:37:48.183Z,9.30
2019-02-28T02:40:17.211Z,9.30
2019-02-28T02:42:48.428Z,9.20
2019-02-28T02:45:16.308Z,9.20
2019-02-28T02:47:44.845Z,9.20
2019-02-28T02:50:17.112Z,9.20
2019-02-28T02:52:45.589Z,9.20
2019-02-28T02:55:14.276Z,9.20
2019-02-28T02:57:42.814Z,9.30
2019-02-28T03:00:18.569Z,9.10
2019-02-28T03:02:59.782Z,9.10
2019-02-28T03:05:34.924Z,9.10
2019-02-28T03:07:59.807Z,9.10
2019-02-28T03:10:28.801Z,9.10
2019-02-28T03:12:57.352Z,9.10
2019-02-28T03:15:27.247Z,9.10
2019-02-28T03:17:55.855Z,9.10
2019-02-28T03:20:24.407Z,9.00
2019-02-28T03:22:52.882Z,9.00
2019-02-28T03:25:27.681Z,9.00
2019-02-28T03:27:56.481Z,8.90
2019-02-28T03:30:28.499Z,8.90
2019-02-28T03:32:52.211Z,8.90
2019-02-28T03:35:20.820Z,8.80
2019-02-28T03:37:49.413Z,8.80
2019-02-28T03:40:18.121Z,8.80
2019-02-28T03:42:46.681Z,8.70
2019-02-28T03:45:18.324Z,8.70
2019-02-28T03:47:46.848Z,8.70
2019-02-28T03:50:15.449Z,8.70
2019-02-28T03:52:44.829Z,8.60
2019-02-28T03:55:14.609Z,8.60
2019-02-28T03:57:43.124Z,8.60
2019-02-28T04:00:32.629Z,8.60
2019-02-28T04:02:58.709Z,8.50
2019-02-28T04:05:27.975Z,8.50
2019-02-28T04:07:55.948Z,8.50
2019-02-28T04:10:24.497Z,8.50
2019-02-28T04:12:53.043Z,8.50
2019-02-28T04:15:21.853Z,8.50
2019-02-28T04:17:50.430Z,8.60
2019-02-28T04:20:19.051Z,8.60
2019-02-28T04:22:47.611Z,8.60
2019-02-28T04:25:22.846Z,8.50
2019-02-28T04:27:46.405Z,8.50
2019-02-28T04:30:15.418Z,8.50
2019-02-28T04:32:43.951Z,8.50
2019-02-28T04:35:12.595Z,8.40
2019-02-28T04:37:45.486Z,8.40
2019-02-28T04:40:14.510Z,8.40
2019-02-28T04:42:43.128Z,8.40
2019-02-28T04:45:13.413Z,8.40
2019-02-28T04:47:42.049Z,8.40
2019-02-28T04:50:11.954Z,8.40
2019-02-28T04:52:46.746Z,8.30
2019-02-28T04:55:11.295Z,8.30
2019-02-28T04:57:39.780Z,8.30
2019-02-28T05:00:16.592Z,8.20
2019-02-28T05:02:45.159Z,8.20
2019-02-28T05:05:13.875Z,8.20
2019-02-28T05:07:42.524Z,8.20
2019-02-28T05:10:11.819Z,8.20
2019-02-28T05:12:41.054Z,8.20
2019-02-28T05:15:11.954Z,8.20
2019-02-28T05:17:40.473Z,8.20
2019-02-28T05:20:10.746Z,8.20
2019-02-28T05:22:40.624Z,8.20
2019-02-28T05:25:10.312Z,8.20
2019-02-28T05:27:38.872Z,8.20
2019-02-28T05:30:18.003Z,8.30
2019-02-28T05:32:43.708Z,8.20
2019-02-28T05:35:12.294Z,8.20
2019-02-28T05:37:46.451Z,8.20
2019-02-28T05:40:12.975Z,8.20
2019-02-28T05:42:41.478Z,8.10
2019-02-28T05:45:11.392Z,8.10
2019-02-28T05:47:46.115Z,8.00
2019-02-28T05:50:15.596Z,8.00
2019-02-28T05:52:42.450Z,8.00
2019-02-28T05:55:11.065Z,7.90
2019-02-28T05:57:43.284Z,7.90
2019-02-28T06:00:18.030Z,7.90
2019-02-28T06:06:14.296Z,7.80
2019-02-28T06:08:42.840Z,7.80
2019-02-28T06:11:11.312Z,7.70
2019-02-28T06:13:39.883Z,7.70
2019-02-28T06:16:11.324Z,7.70
2019-02-28T06:18:38.533Z,7.70
2019-02-28T06:21:07.000Z,7.70
2019-02-28T06:23:35.496Z,7.70
2019-02-28T06:26:04.013Z,7.80
2019-02-28T06:28:32.502Z,7.80
2019-02-28T06:31:01.034Z,7.80
2019-02-28T06:33:30.570Z,7.80
2019-02-28T06:35:59.798Z,7.90
2019-02-28T06:38:28.369Z,7.90
2019-02-28T06:40:56.881Z,8.00
2019-02-28T06:43:25.377Z,8.00
2019-02-28T06:45:53.919Z,8.10
2019-02-28T06:48:25.802Z,8.20
2019-02-28T06:50:52.570Z,8.20
2019-02-28T06:53:21.047Z,8.30
2019-02-28T06:55:49.552Z,8.30
2019-02-28T06:58:18.142Z,8.40
2019-02-28T07:00:47.318Z,8.40
2019-02-28T07:03:16.639Z,8.50
2019-02-28T07:05:45.129Z,8.50
2019-02-28T07:08:13.665Z,8.50
2019-02-28T07:10:44.923Z,8.60
2019-02-28T07:13:12.429Z,8.70
2019-02-28T07:15:40.931Z,8.70
2019-02-28T07:18:09.403Z,8.80
2019-02-28T07:20:37.919Z,8.90
2019-02-28T07:23:06.449Z,8.90
2019-02-28T07:25:34.941Z,9.00
2019-02-28T07:28:03.490Z,9.10
2019-02-28T07:30:32.059Z,9.20
2019-02-28T07:33:00.616Z,9.30
2019-02-28T07:35:32.907Z,9.40
2019-02-28T07:37:59.346Z,9.40
2019-02-28T07:40:27.831Z,9.50
2019-02-28T07:42:56.297Z,9.60
2019-02-28T07:45:24.785Z,9.70
2019-02-28T07:47:53.345Z,9.80
2019-02-28T07:50:21.873Z,9.90
2019-02-28T07:52:50.355Z,10.00
2019-02-28T07:55:19.963Z,10.10
2019-02-28T07:57:54.202Z,10.20
2019-02-28T08:00:20.597Z,10.30
2019-02-28T08:02:49.218Z,10.40
2019-02-28T08:05:17.815Z,10.50
2019-02-28T08:07:52.089Z,10.70
2019-02-28T08:10:28.256Z,10.80
2019-02-28T08:12:56.805Z,10.90
2019-02-28T08:15:26.400Z,11.10
2019-02-28T08:17:54.950Z,11.20
2019-02-28T08:20:23.500Z,11.40
2019-02-28T08:22:52.150Z,11.50
2019-02-28T08:25:20.643Z,11.70
2019-02-28T08:27:49.206Z,11.80
2019-02-28T08:30:20.756Z,11.90
2019-02-28T08:32:49.443Z,12.10
2019-02-28T08:35:18.001Z,12.20
2019-02-28T08:37:46.528Z,12.40
2019-02-28T08:40:20.431Z,12.50
2019-02-28T08:42:49.952Z,12.70
2019-02-28T08:45:18.647Z,12.80
2019-02-28T08:47:47.171Z,12.90
2019-02-28T08:50:23.299Z,13.10
2019-02-28T08:52:52.266Z,13.20
2019-02-28T08:55:28.233Z,13.40
2019-02-28T08:57:55.657Z,13.50
2019-02-28T09:00:22.495Z,13.70
2019-02-28T09:02:53.086Z,13.80
2019-02-28T09:05:25.527Z,13.90
2019-02-28T09:07:52.056Z,14.00
2019-02-28T09:10:22.814Z,14.10
2019-02-28T09:12:51.418Z,14.20
2019-02-28T09:15:20.153Z,14.30
2019-02-28T09:17:48.682Z,14.40
2019-02-28T09:20:17.514Z,14.50
2019-02-28T09:22:46.188Z,14.60
2019-02-28T09:25:22.100Z,14.80
2019-02-28T09:27:49.505Z,14.80
2019-02-28T09:30:32.576Z,15.00
2019-02-28T09:33:01.120Z,15.10
2019-02-28T09:35:29.711Z,15.20
2019-02-28T09:38:00.157Z,15.30
2019-02-28T09:40:29.453Z,15.40
2019-02-28T09:42:58.678Z,15.50
2019-02-28T09:45:31.222Z,15.60
2019-02-28T09:48:02.022Z,15.70
2019-02-28T09:50:29.915Z,15.80
2019-02-28T09:52:58.379Z,15.90
2019-02-28T09:55:26.834Z,15.90
2019-02-28T09:57:55.342Z,16.10
2019-02-28T10:00:27.717Z,16.10
2019-02-28T10:02:56.361Z,16.20
2019-02-28T10:05:24.842Z,16.30
2019-02-28T10:07:53.407Z,16.30
2019-02-28T10:10:27.695Z,16.40
2019-02-28T10:12:56.831Z,16.40
2019-02-28T10:15:25.690Z,16.50
2019-02-28T10:17:54.339Z,16.60
2019-02-28T10:20:39.500Z,16.60
2019-02-28T10:23:08.142Z,16.70
2019-02-28T10:25:40.956Z,16.70
2019-02-28T10:28:06.982Z,16.80
2019-02-28T10:30:35.524Z,16.90
2019-02-28T10:33:04.033Z,16.90
2019-02-28T10:35:33.464Z,17.00
2019-02-28T10:38:02.786Z,17.00
2019-02-28T10:40:31.658Z,17.00
2019-02-28T10:43:00.130Z,17.10
2019-02-28T10:45:28.918Z,17.10
2019-02-28T10:48:02.843Z,17.10
2019-02-28T10:50:33.235Z,17.20
2019-02-28T10:53:04.060Z,17.30
2019-02-28T10:55:33.275Z,17.30
2019-02-28T10:58:01.569Z,17.40
2019-02-28T11:00:32.849Z,17.40
2019-02-28T11:03:02.758Z,17.40
2019-02-28T11:05:33.641Z,17.50
2019-02-28T11:08:02.794Z,17.40
2019-02-28T11:10:37.110Z,17.40
2019-02-28T11:13:08.055Z,17.40
2019-02-28T11:15:36.726Z,17.40
2019-02-28T11:18:09.601Z,17.40
2019-02-28T11:20:36.157Z,17.40
2019-02-28T11:23:04.997Z,17.40
2019-02-28T11:25:35.539Z,17.40
2019-02-28T11:28:03.909Z,17.40
2019-02-28T11:30:33.275Z,17.50
2019-02-28T11:33:04.524Z,17.50
2019-02-28T11:35:32.544Z,17.50
2019-02-28T11:38:01.155Z,17.50
2019-02-28T11:40:29.785Z,17.50
2019-02-28T11:43:02.769Z,17.60
2019-02-28T11:45:32.580Z,17.60
2019-02-28T11:48:03.377Z,17.60
2019-02-28T11:50:32.306Z,17.70
2019-02-28T11:53:04.903Z,17.80
2019-02-28T11:55:31.219Z,17.90
2019-02-28T11:57:59.863Z,17.90
2019-02-28T12:00:32.611Z,18.10
2019-02-28T12:03:01.340Z,18.20
2019-02-28T12:05:29.873Z,18.30
2019-02-28T12:07:58.357Z,18.40
2019-02-28T12:10:27.826Z,18.50
2019-02-28T12:12:56.506Z,18.60
2019-02-28T12:15:32.593Z,18.70
2019-02-28T12:18:04.657Z,18.80
2019-02-28T12:20:31.339Z,18.90
2019-02-28T12:22:59.843Z,19.00
2019-02-28T12:25:28.470Z,19.10
2019-02-28T12:27:59.296Z,19.10
2019-02-28T12:30:34.306Z,19.20
2019-02-28T12:33:02.951Z,19.30
2019-02-28T12:35:37.295Z,19.40
2019-02-28T12:38:01.865Z,19.50
2019-02-28T12:40:35.392Z,19.60
2019-02-28T12:43:08.796Z,19.70
2019-02-28T12:45:39.388Z,19.80
2019-02-28T12:48:08.080Z,19.80
2019-02-28T12:50:36.790Z,19.80
2019-02-28T12:53:05.474Z,19.80
2019-02-28T12:55:35.527Z,19.90
2019-02-28T12:58:04.153Z,19.90
2019-02-28T13:00:43.538Z,20.00
2019-02-28T13:03:12.136Z,20.00
2019-02-28T13:05:40.727Z,20.00
2019-02-28T13:08:09.321Z,20.00
2019-02-28T13:10:37.825Z,20.00
2019-02-28T13:13:07.706Z,20.00
2019-02-28T13:15:36.499Z,20.00
2019-02-28T13:18:08.833Z,20.00
2019-02-28T13:20:37.653Z,20.10
2019-02-28T13:23:06.205Z,20.20
2019-02-28T13:25:34.741Z,20.10
2019-02-28T13:28:03.433Z,20.10
2019-02-28T13:30:33.688Z,20.20
2019-02-28T13:33:02.281Z,20.20
2019-02-28T13:35:45.704Z,20.20
2019-02-28T13:38:09.933Z,20.20
2019-02-28T13:40:40.889Z,20.30
2019-02-28T13:43:08.752Z,20.30
2019-02-28T13:45:37.216Z,20.40
2019-02-28T13:48:05.775Z,20.50
2019-02-28T13:50:37.083Z,20.70
2019-02-28T13:53:17.275Z,20.80
2019-02-28T13:55:37.461Z,20.90
2019-02-28T13:58:06.049Z,21.10
2019-02-28T14:00:43.989Z,21.30
2019-02-28T14:03:16.854Z,21.40
2019-02-28T14:05:44.707Z,21.50
2019-02-28T14:08:13.310Z,21.80
2019-02-28T14:10:41.992Z,21.90
2019-02-28T14:13:10.534Z,21.90
2019-02-28T14:15:52.682Z,21.90
2019-02-28T14:18:17.823Z,21.90
2019-02-28T14:20:46.471Z,21.70
2019-02-28T14:23:20.165Z,21.50
2019-02-28T14:25:45.279Z,21.40
2019-02-28T14:28:13.832Z,21.30
2019-02-28T14:30:42.450Z,21.20
2019-02-28T14:33:10.984Z,21.20
2019-02-28T14:35:39.495Z,21.10
2019-02-28T14:38:08.131Z,21.10
2019-02-28T14:40:36.779Z,21.10
2019-02-28T14:43:05.311Z,21.20
2019-02-28T14:45:43.052Z,21.30
2019-02-28T14:48:09.701Z,21.40
2019-02-28T14:50:38.434Z,21.70
2019-02-28T14:53:06.916Z,21.90
2019-02-28T14:55:37.290Z,22.00
2019-02-28T14:58:05.708Z,22.20
2019-02-28T15:00:35.557Z,22.20
2019-02-28T15:03:04.374Z,22.20
2019-02-28T15:05:38.460Z,22.20
2019-02-28T15:08:07.107Z,22.10
2019-02-28T15:10:36.078Z,22.10
2019-02-28T15:13:05.118Z,22.00
2019-02-28T15:15:36.136Z,22.20
2019-02-28T15:18:04.426Z,22.60
2019-02-28T15:20:33.367Z,23.20
2019-02-28T15:23:01.994Z,23.90
2019-02-28T15:25:30.911Z,24.70
2019-02-28T15:27:59.529Z,25.40
2019-02-28T15:30:34.929Z,26.00
2019-02-28T15:33:03.658Z,26.60
2019-02-28T15:35:32.298Z,27.00
2019-02-28T15:38:00.843Z,27.50
2019-02-28T15:40:37.615Z,27.70
2019-02-28T15:43:06.170Z,27.80
2019-02-28T15:45:36.265Z,27.60
2019-02-28T15:48:05.389Z,27.30
2019-02-28T15:50:34.019Z,26.90
2019-02-28T15:53:02.611Z,26.40
2019-02-28T15:55:35.267Z,25.90
2019-02-28T15:58:02.699Z,25.50
2019-02-28T16:00:32.948Z,25.10
2019-02-28T16:03:01.528Z,24.90
2019-02-28T16:05:30.218Z,24.50
2019-02-28T16:07:58.946Z,24.10
2019-02-28T16:10:32.965Z,23.70
2019-02-28T16:13:01.834Z,23.30
2019-02-28T16:15:30.371Z,23.00
2019-02-28T16:17:58.959Z,22.70
2019-02-28T16:20:28.538Z,22.40
2019-02-28T16:22:57.868Z,22.20
2019-02-28T16:25:35.428Z,22.00
2019-02-28T16:28:07.763Z,21.90
2019-02-28T16:30:36.244Z,21.70
2019-02-28T16:33:04.975Z,21.50
2019-02-28T16:35:33.441Z,21.30
2019-02-28T16:38:02.016Z,21.20
2019-02-28T16:40:31.478Z,21.00
2019-02-28T16:42:59.989Z,20.80
2019-02-28T16:45:40.746Z,20.70
2019-02-28T16:48:08.246Z,20.50
2019-02-28T16:50:36.969Z,20.30
2019-02-28T16:53:05.612Z,20.20
2019-02-28T16:55:34.412Z,20.00
2019-02-28T16:58:03.044Z,19.80
2019-02-28T17:00:31.743Z,19.80
2019-02-28T17:03:00.337Z,19.60
2019-02-28T17:05:28.975Z,19.60
2019-02-28T17:07:57.602Z,19.40
2019-02-28T17:10:33.916Z,19.40
2019-02-28T17:13:04.246Z,19.30
2019-02-28T17:15:37.417Z,19.10
2019-02-28T17:18:07.660Z,19.10
2019-02-28T17:20:37.667Z,19.00
2019-02-28T17:23:06.410Z,18.90
2019-02-28T17:25:34.889Z,18.90
2019-02-28T17:28:05.083Z,18.80
2019-02-28T17:30:37.922Z,18.80
2019-02-28T17:33:08.964Z,18.70
2019-02-28T17:35:36.776Z,18.70
2019-02-28T17:38:05.374Z,18.60
2019-02-28T17:40:33.860Z,18.60
2019-02-28T17:43:02.409Z,18.60
2019-02-28T17:45:31.113Z,18.50
2019-02-28T17:48:05.225Z,18.40
2019-02-28T17:50:51.800Z,18.40
2019-02-28T17:53:26.323Z,18.40
2019-02-28T17:56:24.924Z,18.40
2019-02-28T17:59:11.051Z,18.30
2019-02-28T18:01:48.061Z,18.30
2019-02-28T18:04:48.024Z,18.20
2019-02-28T18:07:43.178Z,18.20
2019-02-28T18:10:34.102Z,18.10
2019-02-28T18:13:27.860Z,18.00
2019-02-28T18:16:05.036Z,18.00
2019-02-28T18:18:41.579Z,18.00
2019-02-28T18:21:30.597Z,17.90
2019-02-28T18:24:16.987Z,17.80
2019-02-28T18:27:11.745Z,17.80
2019-02-28T18:30:18.573Z,17.70
2019-02-28T18:32:47.150Z,17.70
2019-02-28T18:35:15.614Z,17.60
2019-02-28T18:37:44.091Z,17.60
2019-02-28T18:40:12.795Z,17.60
2019-02-28T18:42:41.309Z,17.60
2019-02-28T18:45:11.483Z,17.60
2019-02-28T18:47:40.792Z,17.50
2019-02-28T18:50:09.960Z,17.50
2019-02-28T18:52:38.494Z,17.50
2019-02-28T18:55:07.736Z,17.50
2019-02-28T18:57:36.226Z,17.50
2019-02-28T19:00:08.970Z,17.50
2019-02-28T19:02:37.535Z,17.50
2019-02-28T19:05:07.055Z,17.50
2019-02-28T19:07:35.802Z,17.50
2019-02-28T19:10:06.613Z,17.50
2019-02-28T19:12:35.114Z,17.50
2019-02-28T19:15:04.318Z,17.50
2019-02-28T19:17:32.816Z,17.40
2019-02-28T19:20:01.376Z,17.40
2019-02-28T19:22:29.932Z,17.40
2019-02-28T19:24:58.403Z,17.40
2019-02-28T19:27:26.918Z,17.30
2019-02-28T19:29:55.477Z,17.30
2019-02-28T19:32:23.943Z,17.30
2019-02-28T19:34:52.441Z,17.30
2019-02-28T19:37:20.933Z,17.20
2019-02-28T19:39:49.497Z,17.20
2019-02-28T19:42:17.959Z,17.20
2019-02-28T19:44:46.491Z,17.20
2019-02-28T19:47:15.043Z,17.20
2019-02-28T19:49:43.548Z,17.20
2019-02-28T19:52:12.015Z,17.10
2019-02-28T19:54:40.591Z,17.10
2019-02-28T19:57:09.059Z,17.10
2019-02-28T19:59:37.529Z,17.10
2019-02-28T20:02:06.357Z,17.00
2019-02-28T20:04:34.842Z,17.00
2019-02-28T20:07:03.389Z,17.00
2019-02-28T20:09:31.956Z,16.90
2019-02-28T20:12:00.601Z,16.90
2019-02-28T20:14:29.157Z,16.90
2019-02-28T20:16:57.734Z,16.80
2019-02-28T20:19:26.215Z,16.80
2019-02-28T20:21:54.756Z,16.80
2019-02-28T20:24:23.257Z,16.80
2019-02-28T20:26:51.881Z,16.70
2019-02-28T20:29:20.398Z,16.70
2019-02-28T20:31:48.977Z,16.50
2019-02-28T20:34:17.734Z,16.50
2019-02-28T20:36:46.284Z,16.60
2019-02-28T20:39:15.234Z,16.50
2019-02-28T20:41:43.813Z,16.50
2019-02-28T20:44:12.325Z,16.50
2019-02-28T20:46:40.862Z,16.40
2019-02-28T20:49:09.384Z,16.30
2019-02-28T20:51:37.993Z,16.30
2019-02-28T20:54:06.531Z,16.20
2019-02-28T20:56:35.085Z,16.20
2019-02-28T20:59:03.618Z,16.10
2019-02-28T21:01:32.105Z,16.10
2019-02-28T21:04:00.631Z,16.00
2019-02-28T21:06:29.150Z,15.90
2019-02-28T21:08:57.641Z,15.90
2019-02-28T21:11:26.149Z,15.90
2019-02-28T21:13:54.621Z,15.80
2019-02-28T21:16:23.348Z,15.90
2019-02-28T21:18:51.882Z,15.90
2019-02-28T21:21:20.342Z,15.90
2019-02-28T21:23:48.829Z,15.80
2019-02-28T21:26:17.294Z,15.70
2019-02-28T21:28:45.782Z,15.80
2019-02-28T21:31:14.266Z,15.80
2019-02-28T21:33:42.755Z,15.80
2019-02-28T21:36:11.285Z,15.80
2019-02-28T21:38:39.845Z,15.80
2019-02-28T21:41:08.442Z,15.70
2019-02-28T21:43:36.990Z,15.70
2019-02-28T21:46:05.651Z,15.70
2019-02-28T21:48:34.189Z,15.70
2019-02-28T21:51:02.969Z,15.70
2019-02-28T21:53:31.467Z,15.70
2019-02-28T21:55:59.987Z,15.70
2019-02-28T21:58:28.728Z,15.80
2019-02-28T22:00:57.328Z,15.70
2019-02-28T22:03:25.799Z,15.60
2019-02-28T22:05:54.355Z,15.60
2019-02-28T22:08:22.875Z,15.70
2019-02-28T22:32:24.157Z,15.70
2019-02-28T22:34:48.540Z,15.60
2019-02-28T22:37:16.997Z,15.60
2019-02-28T22:39:45.476Z,15.60
2019-02-28T22:42:21.720Z,15.60
2019-02-28T22:44:44.148Z,15.60
2019-02-28T22:47:12.645Z,15.60
2019-02-28T22:49:41.157Z,15.60
2019-02-28T22:52:09.649Z,15.60
2019-02-28T22:54:38.100Z,15.60
2019-02-28T22:57:06.775Z,15.60
2019-02-28T22:59:35.233Z,15.60
2019-02-28T23:02:03.958Z,15.60
2019-02-28T23:04:32.420Z,15.60
2019-02-28T23:07:00.922Z,15.60
2019-02-28T23:09:29.378Z,15.60
2019-02-28T23:11:57.915Z,15.60
2019-02-28T23:14:26.420Z,15.60
2019-02-28T23:16:56.408Z,15.50
2019-02-28T23:19:24.880Z,15.50
2019-02-28T23:21:53.369Z,15.50
2019-02-28T23:24:51.987Z,15.40
2019-02-28T23:27:20.470Z,15.40
2019-02-28T23:29:54.795Z,15.30
2019-02-28T23:32:34.974Z,15.30
2019-02-28T23:35:04.765Z,15.30
2019-02-28T23:37:33.268Z,15.20
2019-02-28T23:40:01.748Z,15.20
2019-02-28T23:42:30.225Z,15.20
2019-02-28T23:44:58.686Z,15.20
2019-02-28T23:47:27.176Z,15.10
2019-02-28T23:49:55.636Z,15.10
2019-02-28T23:52:24.120Z,15.10
2019-02-28T23:54:52.856Z,15.10
2019-02-28T23:57:21.340Z,15.00
2019-02-28T23:59:49.797Z,15.00
